Latest Weather Observations for Cowra

IDN60801

Issued at 11:37 am EDT Tuesday 27 January 2015 (issued every 30 minutes, with the page automatically refreshed every 10 minutes)

About weather observations | Map of weather stations | Latest weather observations for NSW | Other Formats
Station Details ID: 065111 Name: COWRA AIRPORT AWS Lat: -33.84 Lon: 148.65 Height: 296.5 m
Data from the previous 72 hours. | See also: Recent months at Cowra
Date/Time
EDT
Temp
°C
App
Temp
°C
Dew
Point
Rel
Hum
%
Delta-T
°C
Wind Press
QNH
hPa
Press
MSL
hPa
Rain
since 9 am
mm
Dir
 
Spd
km/h
Gust
km/h
Spd
kts
Gust
kts
27/11:30am 24.1 22.6 15.3 58 5.4 ESE 17 28 9 15 1011.1 - 0.0
27/11:00am 22.7 20.5 14.5 60 4.9 SE 19 24 10 13 1011.4 - 0.0
27/10:30am 21.6 20.1 14.3 63 4.3 SE 15 22 8 12 1011.7 - 0.0
27/10:00am 21.8 19.8 14.9 65 4.1 ESE 19 28 10 15 1011.9 - 0.0
27/09:30am 20.8 18.6 14.5 67 3.7 SE 19 22 10 12 1012.5 - 0.0
27/09:00am 19.5 17.1 13.9 70 3.3 ESE 19 24 10 13 1012.5 1011.2 0.0
27/08:30am 19.8 17.8 14.0 69 3.4 ESE 17 26 9 14 1012.2 - 0.0
27/08:00am 19.2 17.2 13.8 71 3.1 SE 17 24 9 13 1012.0 - 0.0
27/07:30am 17.9 17.0 13.6 76 2.5 SE 11 15 6 8 1011.6 - 0.0
27/07:00am 17.7 16.3 13.4 76 2.5 SE 13 19 7 10 1011.6 - 0.0
27/06:30am 17.9 16.5 13.4 75 2.6 SSE 13 17 7 9 1011.4 - 0.0
27/06:00am 17.6 15.8 13.3 76 2.5 S 15 19 8 10 1011.1 1009.8 0.0
27/05:30am 17.2 15.8 13.3 78 2.2 S 13 17 7 9 1010.8 - 0.0
27/05:00am 17.0 15.1 13.1 78 2.2 S 15 17 8 9 1010.8 - 0.0
27/04:30am 17.3 15.8 13.0 76 2.4 S 13 19 7 10 1010.9 - 0.0
27/04:00am 17.9 16.8 13.0 73 2.8 SSE 11 17 6 9 1011.1 - 0.0
27/03:30am 18.6 17.0 12.8 69 3.3 SSE 13 15 7 8 1011.3 - 0.0
27/03:00am 18.9 18.1 12.9 68 3.4 SSE 9 13 5 7 1011.6 1010.3 0.0
27/02:30am 19.0 18.2 13.0 68 3.4 SE 9 11 5 6 1011.9 - 0.0
27/02:00am 18.8 17.6 12.8 68 3.4 SE 11 17 6 9 1011.9 - 0.0
27/01:30am 18.9 17.7 12.9 68 3.4 SE 11 15 6 8 1012.2 - 0.0
27/01:00am 19.0 18.1 12.7 67 3.6 SE 9 13 5 7 1012.2 - 0.0
27/12:30am 19.4 18.9 12.7 65 3.8 SE 7 13 4 7 1012.5 - 0.0
27/12:00am 19.9 18.7 12.7 63 4.1 ESE 11 17 6 9 1012.3 1011.1 0.0
 
Date/Time
EDT
Temp
°C
App
Temp
°C
Dew
Point
Rel
Hum
%
Delta-T
°C
Wind Press
QNH
hPa
Press
MSL
hPa
Rain
since 9 am
mm
Dir
 
Spd
km/h
Gust
km/h
Spd
kts
Gust
kts
26/11:30pm 20.2 19.0 12.7 62 4.3 ESE 11 15 6 8 1012.5 - 0.0
26/11:00pm 20.4 19.5 12.6 61 4.5 ESE 9 17 5 9 1012.5 - 0.0
26/10:30pm 20.9 20.1 12.8 60 4.7 SE 9 15 5 8 1012.5 - 0.0
26/10:00pm 21.2 19.3 12.9 59 4.8 E 15 22 8 12 1012.2 - 0.0
26/09:30pm 21.8 20.0 13.2 58 5.0 ESE 15 22 8 12 1011.7 - 0.0
26/09:00pm 22.4 20.7 13.7 58 5.1 E 15 22 8 12 1011.3 1010.0 0.0
26/08:30pm 23.2 20.8 13.9 56 5.5 E 19 30 10 16 1010.6 - 0.0
26/08:00pm 24.2 22.0 14.3 54 5.9 E 19 30 10 16 1009.9 - 0.0
26/07:30pm 25.1 22.1 14.8 52 6.2 ENE 24 33 13 18 1009.1 - 0.0
26/07:00pm 27.3 24.4 15.0 47 7.6 E 24 37 13 20 1008.5 - 0.0
26/06:30pm 30.3 27.8 8.1 25 12.3 S 11 17 6 9 1007.9 - 0.0
26/06:00pm 30.1 27.1 9.1 27 11.9 S 15 30 8 16 1007.7 1006.4 0.0
26/05:30pm 30.4 27.8 7.6 24 12.6 W 11 20 6 11 1007.8 - 0.0
26/05:00pm 30.9 29.0 9.2 26 12.3 S 9 22 5 12 1007.9 - 0.0
26/04:30pm 30.1 27.9 7.9 25 12.3 W 9 17 5 9 1008.2 - 0.0
26/04:00pm 30.4 26.9 8.7 26 12.2 NNW 17 22 9 12 1008.5 - 0.0
26/03:30pm 30.6 27.9 8.9 26 12.2 NNW 13 22 7 12 1008.6 - 0.0
26/03:00pm 29.9 28.0 8.9 27 11.8 NW 9 24 5 13 1009.0 1007.6 0.0
26/02:30pm 29.2 27.6 8.8 28 11.4 NNW 7 17 4 9 1009.5 - 0.0
26/02:00pm 28.9 26.5 10.1 31 10.7 NNW 13 24 7 13 1010.0 - 0.0
26/01:30pm 27.9 26.4 10.6 34 9.9 N 9 17 5 9 1010.3 - 0.0
26/01:00pm 27.4 26.0 11.0 36 9.4 N 9 15 5 8 1010.7 - 0.0
26/12:30pm 26.6 25.5 10.7 37 9.1 WSW 7 15 4 8 1010.9 - 0.0
26/12:00pm 26.2 25.0 11.5 40 8.5 W 9 15 5 8 1011.1 1009.8 0.0
26/11:30am 25.2 24.0 11.7 43 7.8 WSW 9 19 5 10 1011.3 - 0.0
26/11:00am 23.8 23.2 11.8 47 6.9 SW 6 9 3 5 1011.6 - 0.0
26/10:30am 23.6 23.8 14.6 57 5.4 ESE 7 11 4 6 1012.0 - 0.0
26/10:00am 22.1 22.1 13.7 59 4.9 ESE 6 13 3 7 1012.1 - 0.0
26/09:30am 20.6 19.9 13.1 62 4.3 SSE 9 15 5 8 1012.2 - 0.0
26/09:00am 19.4 17.8 12.9 66 3.7 S 13 15 7 8 1012.5 1011.1 0.0
26/08:30am 17.6 16.1 11.8 69 3.2 S 11 15 6 8 1012.3 - 0.0
26/08:00am 16.1 15.0 10.8 71 2.9 SSE 7 9 4 5 1012.0 - 0.0
26/07:30am 14.7 14.1 10.3 75 2.3 SSE 4 7 2 4 1011.9 - 0.0
26/07:00am 13.0 11.2 9.4 79 1.9 SE 9 13 5 7 1011.7 - 0.0
26/06:30am 12.2 11.0 9.4 83 1.4 SSE 6 7 3 4 1011.3 - 0.0
26/06:00am 12.2 11.0 9.6 84 1.3 S 6 7 3 4 1011.0 1009.7 0.0
26/05:30am 12.9 11.5 9.5 80 1.8 SE 7 11 4 6 1010.5 - 0.0
26/05:00am 13.4 13.2 10.4 82 1.6 SE 2 9 1 5 1010.2 - 0.0
26/04:30am 12.5 11.4 8.6 77 2.0 E 4 9 2 5 1010.2 - 0.0
26/04:00am 14.0 14.1 10.0 77 2.1 CALM 0 0 0 0 1009.9 - 0.0
26/03:30am 15.0 14.9 9.4 69 2.9 CALM 0 0 0 0 1009.9 - 0.0
26/03:00am 15.1 13.6 9.2 68 3.1 SSE 7 7 4 4 1010.0 1008.6 0.0
26/02:30am 16.8 15.1 8.2 57 4.4 SSE 7 9 4 5 1009.9 - 0.0
26/02:00am 14.7 14.3 8.4 66 3.2 CALM 0 6 0 3 1010.1 - 0.0
26/01:30am 15.4 14.0 9.7 69 3.0 S 7 11 4 6 1009.8 - 0.0
26/01:00am 18.5 16.4 8.2 51 5.4 ESE 9 11 5 6 1009.6 - 0.0
26/12:30am 18.1 16.3 7.8 51 5.3 S 7 9 4 5 1009.7 - 0.0
26/12:00am 19.4 17.9 8.4 49 5.8 S 6 11 3 6 1009.7 1008.3 0.0
 
Date/Time
EDT
Temp
°C
App
Temp
°C
Dew
Point
Rel
Hum
%
Delta-T
°C
Wind Press
QNH
hPa
Press
MSL
hPa
Rain
since 9 am
mm
Dir
 
Spd
km/h
Gust
km/h
Spd
kts
Gust
kts
25/11:30pm 19.0 17.9 8.6 51 5.5 SW 4 7 2 4 1009.7 - 0.0
25/11:00pm 20.0 17.4 9.3 50 5.7 SSW 13 15 7 8 1009.5 - 0.0
25/10:30pm 21.1 19.5 10.3 50 5.9 SSW 9 11 5 6 1009.5 - 0.0
25/10:00pm 21.7 19.8 10.5 49 6.2 SSW 11 13 6 7 1009.1 - 0.0
25/09:30pm 22.8 20.7 9.9 44 7.1 SW 11 15 6 8 1008.7 - 0.0
25/09:00pm 23.1 20.9 10.9 46 6.9 SW 13 15 7 8 1008.5 1007.2 0.0
25/08:30pm 24.4 22.1 10.3 41 7.9 SW 13 17 7 9 1008.1 - 0.0
25/08:00pm 26.6 23.3 9.5 34 9.6 WSW 17 24 9 13 1007.8 - 0.0
25/07:30pm 27.7 24.1 10.4 34 9.9 WSW 20 26 11 14 1007.4 - 0.0
25/07:00pm 28.8 23.8 9.5 30 10.9 SW 26 32 14 17 1007.0 - 0.0
25/06:30pm 29.4 23.8 10.0 30 11.1 SW 30 35 16 19 1006.6 - 0.0
25/06:00pm 29.6 25.1 10.2 30 11.2 WSW 24 33 13 18 1006.3 1004.9 0.0
25/05:30pm 29.9 25.6 10.9 31 11.0 WSW 24 33 13 18 1006.2 - 0.0
25/05:00pm 30.3 25.6 10.8 30 11.3 WSW 26 33 14 18 1006.1 - 0.0
25/04:30pm 29.9 25.0 9.9 29 11.4 SW 26 37 14 20 1006.0 - 0.0
25/04:00pm 30.3 24.7 10.3 29 11.5 SW 30 37 16 20 1006.1 - 0.0
25/03:30pm 29.9 26.7 11.4 32 10.8 WSW 19 33 10 18 1006.1 - 0.0
25/03:00pm 29.6 25.8 11.2 32 10.7 SW 22 30 12 16 1006.2 1004.8 0.0
25/02:30pm 29.7 25.1 11.2 31 10.8 SW 26 35 14 19 1006.2 - 0.0
25/02:00pm 28.9 25.2 11.5 34 10.2 WSW 22 35 12 19 1006.3 - 0.0
25/01:30pm 28.8 25.4 11.4 34 10.1 SW 20 37 11 20 1006.2 - 0.0
25/01:00pm 27.9 24.8 11.5 36 9.5 W 19 28 10 15 1006.4 - 0.0
25/12:30pm 27.2 25.1 13.5 42 8.2 SW 17 24 9 13 1006.4 - 0.0
25/12:00pm 26.7 23.4 14.1 46 7.6 SW 24 30 13 16 1006.7 1005.3 0.0
25/11:30am 26.3 23.9 16.3 54 6.2 WSW 24 30 13 16 1006.6 - 0.0
25/11:00am 27.0 27.9 20.1 66 4.6 NW 15 20 8 11 1006.4 - 0.0
25/10:30am 25.7 27.8 19.3 67 4.2 NNW 7 15 4 8 1006.3 - 0.0
25/10:00am 24.5 26.1 18.2 68 4.0 SW 7 11 4 6 1006.2 - 0.0
25/09:30am 24.2 25.1 19.3 74 3.2 N 13 17 7 9 1006.5 - 0.0
25/09:00am 23.6 24.1 19.3 77 2.8 NNW 15 19 8 10 1006.6 1005.2 15.8
25/08:30am 22.9 22.5 18.9 78 2.6 NNW 19 24 10 13 1006.3 - 15.8
25/08:00am 22.0 22.9 19.2 84 1.8 NNW 13 17 7 9 1006.2 - 15.8
25/07:30am 20.7 21.8 18.8 89 1.2 N 11 15 6 8 1005.7 - 15.8
25/07:00am 19.2 21.0 18.4 95 0.5 N 6 7 3 4 1005.6 - 15.8
25/06:30am 18.9 21.7 17.9 94 0.6 CALM 0 0 0 0 1005.4 - 15.8
25/06:00am 18.6 20.1 17.6 94 0.6 N 6 7 3 4 1005.1 1003.8 15.8
25/05:30am 19.0 20.9 18.5 97 0.3 W 6 7 3 4 1004.9 - 15.8
25/05:00am 18.8 21.2 17.1 90 1.0 CALM 0 0 0 0 1004.5 - 15.8
25/04:30am 18.8 20.3 18.0 95 0.5 N 7 9 4 5 1004.7 - 15.8
25/04:00am 19.4 22.0 17.4 88 1.2 CALM 0 0 0 0 1005.0 - 15.8
25/03:30am 19.9 22.8 18.2 90 1.1 CALM 0 0 0 0 1005.1 - 15.8
25/03:00am 19.8 20.6 18.1 90 1.1 NNE 11 13 6 7 1005.4 1004.0 15.8
25/02:30am 19.8 20.8 17.8 88 1.2 NNE 9 11 5 6 1005.5 - 15.8
25/02:00am 20.3 20.6 17.9 86 1.5 NNE 13 13 7 7 1005.6 - 15.8
25/01:30am 20.6 21.4 18.2 86 1.5 N 11 15 6 8 1006.1 - 15.8
25/01:00am 20.4 21.6 18.2 87 1.4 N 9 13 5 7 1006.2 - 15.8
25/12:30am 20.2 20.9 18.0 87 1.4 N 11 13 6 7 1006.3 - 15.8
25/12:00am 20.1 21.5 17.7 86 1.5 NE 7 11 4 6 1006.3 1004.9 15.8
 
Date/Time
EDT
Temp
°C
App
Temp
°C
Dew
Point
Rel
Hum
%
Delta-T
°C
Wind Press
QNH
hPa
Press
MSL
hPa
Rain
since 9 am
mm
Dir
 
Spd
km/h
Gust
km/h
Spd
kts
Gust
kts
24/11:30pm 20.3 21.5 17.3 83 1.9 ENE 7 7 4 4 1006.3 - 15.8
24/11:00pm 21.0 23.8 18.9 88 1.3 N 2 7 1 4 1006.4 - 15.8
24/10:30pm 20.3 22.5 19.3 94 0.6 NNW 6 7 3 4 1006.8 - 15.8
24/10:00pm 20.1 23.1 18.4 90 1.1 CALM 0 0 0 0 1006.7 - 15.8
24/09:30pm 21.1 24.4 19.2 89 1.2 CALM 0 6 0 3 1006.2 - 15.8
24/09:00pm 21.7 23.5 18.3 81 2.2 SW 6 9 3 5 1006.1 1004.7 15.8
24/08:30pm 21.6 23.5 19.0 85 1.7 ESE 7 11 4 6 1005.9 - 15.8
24/08:00pm 21.8 24.7 19.0 84 1.8 ESE 2 7 1 4 1005.9 - 15.8
24/07:30pm 21.3 22.2 19.2 88 1.3 NE 13 19 7 10 1005.8 - 15.8
24/07:00pm 21.1 21.4 19.7 92 0.9 ENE 17 20 9 11 1005.5 - 15.8
24/06:30pm 20.9 22.9 19.9 94 0.6 NE 9 13 5 7 1006.2 - 15.2
24/06:00pm 21.2 22.1 20.0 93 0.8 SE 15 20 8 11 1006.1 1004.7 15.2
24/05:30pm 21.2 23.2 20.0 93 0.8 ESE 9 13 5 7 1006.2 - 14.8
24/05:00pm 21.5 23.1 20.8 96 0.5 SE 13 24 7 13 1006.0 - 12.0
24/04:30pm 21.1 18.0 18.5 85 1.6 SW 32 57 17 31 1005.1 - 9.2
24/04:15pm 23.7 20.4 17.9 70 3.7 SSW 32 56 17 30 1004.9 - 0.0
24/04:00pm 26.0 24.8 18.4 63 4.9 S 22 33 12 18 1004.9 - 0.0
24/03:47pm 27.8 26.1 17.3 52 6.7 S 22 32 12 17 1004.1 - 0.0
24/03:30pm 33.0 30.0 16.8 38 10.4 N 28 39 15 21 1003.2 - 0.0
24/03:00pm 34.1 30.5 17.3 36 10.9 N 32 44 17 24 1003.3 1001.9 0.0
24/02:30pm 32.8 31.2 16.6 38 10.4 NNW 20 28 11 15 1003.9 - 0.0
24/02:00pm 33.3 33.1 16.6 36 10.7 N 13 22 7 12 1004.2 - 0.0
24/01:30pm 33.6 33.1 17.7 38 10.3 NNW 17 28 9 15 1005.2 - 0.0
24/01:00pm 32.6 32.2 18.8 44 9.1 N 19 30 10 16 1006.2 - 0.0
24/12:30pm 31.6 31.6 18.9 47 8.4 N 17 28 9 15 1006.6 - 0.0
24/12:00pm 30.6 30.9 18.7 49 7.8 NNW 15 24 8 13 1007.0 1005.6 0.0

Other Formats:

Comma delimited format used in spreadsheet applications
http://www.bom.gov.au/fwo/IDN60801/IDN60801.95721.axf

JavaScript Object Notation format (JSON) in row-major order
http://www.bom.gov.au/fwo/IDN60801/IDN60801.95721.json